sensor_id;sensor_type;location;lat;lon;timestamp;P1;durP1;ratioP1;P2;durP2;ratioP2
70303;SDS011;57712;48.752;11.348;2023-03-23T00:01:16;8.40;;;4.00;;
70303;SDS011;57712;48.752;11.348;2023-03-23T00:03:49;8.00;;;3.87;;
70303;SDS011;57712;48.752;11.348;2023-03-23T00:06:17;8.23;;;4.57;;
70303;SDS011;57712;48.752;11.348;2023-03-23T00:08:46;8.68;;;3.67;;
70303;SDS011;57712;48.752;11.348;2023-03-23T00:11:24;8.40;;;3.72;;
70303;SDS011;57712;48.752;11.348;2023-03-23T00:13:57;9.07;;;4.07;;
70303;SDS011;57712;48.752;11.348;2023-03-23T00:16:31;9.80;;;4.33;;
70303;SDS011;57712;48.752;11.348;2023-03-23T00:19:06;7.82;;;3.30;;
70303;SDS011;57712;48.752;11.348;2023-03-23T00:21:37;7.47;;;3.75;;
70303;SDS011;57712;48.752;11.348;2023-03-23T00:24:10;8.15;;;3.47;;
70303;SDS011;57712;48.752;11.348;2023-03-23T00:26:39;8.95;;;3.92;;
70303;SDS011;57712;48.752;11.348;2023-03-23T00:31:45;8.52;;;3.53;;
70303;SDS011;57712;48.752;11.348;2023-03-23T00:34:19;8.27;;;3.42;;
70303;SDS011;57712;48.752;11.348;2023-03-23T00:36:48;6.60;;;3.22;;
70303;SDS011;57712;48.752;11.348;2023-03-23T00:39:17;9.38;;;3.63;;
70303;SDS011;57712;48.752;11.348;2023-03-23T00:41:45;9.10;;;3.50;;
70303;SDS011;57712;48.752;11.348;2023-03-23T00:44:13;8.30;;;3.63;;
70303;SDS011;57712;48.752;11.348;2023-03-23T00:46:52;6.97;;;3.25;;
70303;SDS011;57712;48.752;11.348;2023-03-23T00:49:20;8.52;;;3.30;;
70303;SDS011;57712;48.752;11.348;2023-03-23T00:51:55;7.10;;;3.08;;
70303;SDS011;57712;48.752;11.348;2023-03-23T00:54:23;8.23;;;3.40;;
70303;SDS011;57712;48.752;11.348;2023-03-23T00:56:51;8.05;;;3.13;;
70303;SDS011;57712;48.752;11.348;2023-03-23T00:59:18;6.78;;;2.70;;
70303;SDS011;57712;48.752;11.348;2023-03-23T01:01:46;8.80;;;3.15;;
70303;SDS011;57712;48.752;11.348;2023-03-23T01:04:13;6.63;;;3.05;;
70303;SDS011;57712;48.752;11.348;2023-03-23T01:06:42;7.33;;;2.90;;
70303;SDS011;57712;48.752;11.348;2023-03-23T01:09:14;6.78;;;3.35;;
70303;SDS011;57712;48.752;11.348;2023-03-23T01:11:43;7.72;;;3.67;;
70303;SDS011;57712;48.752;11.348;2023-03-23T01:14:11;7.65;;;3.60;;
70303;SDS011;57712;48.752;11.348;2023-03-23T01:16:38;8.13;;;3.45;;
70303;SDS011;57712;48.752;11.348;2023-03-23T01:19:05;7.23;;;3.80;;
70303;SDS011;57712;48.752;11.348;2023-03-23T01:21:32;6.55;;;3.10;;
70303;SDS011;57712;48.752;11.348;2023-03-23T01:23:58;7.75;;;3.53;;
70303;SDS011;57712;48.752;11.348;2023-03-23T01:26:26;8.13;;;3.40;;
70303;SDS011;57712;48.752;11.348;2023-03-23T01:28:54;8.85;;;3.65;;
70303;SDS011;57712;48.752;11.348;2023-03-23T01:31:22;7.17;;;3.70;;
70303;SDS011;57712;48.752;11.348;2023-03-23T01:33:51;9.00;;;3.20;;
70303;SDS011;57712;48.752;11.348;2023-03-23T01:36:20;8.60;;;3.20;;
70303;SDS011;57712;48.752;11.348;2023-03-23T01:38:55;7.75;;;3.17;;
70303;SDS011;57712;48.752;11.348;2023-03-23T01:41:24;6.82;;;2.80;;
70303;SDS011;57712;48.752;11.348;2023-03-23T01:44:01;7.07;;;2.90;;
70303;SDS011;57712;48.752;11.348;2023-03-23T01:46:51;6.75;;;2.97;;
70303;SDS011;57712;48.752;11.348;2023-03-23T01:49:21;6.55;;;2.90;;
70303;SDS011;57712;48.752;11.348;2023-03-23T01:52:00;6.35;;;3.25;;
70303;SDS011;57712;48.752;11.348;2023-03-23T01:54:31;7.05;;;3.80;;
70303;SDS011;57712;48.752;11.348;2023-03-23T01:56:59;7.17;;;4.07;;
70303;SDS011;57712;48.752;11.348;2023-03-23T01:59:29;7.90;;;3.35;;
70303;SDS011;57712;48.752;11.348;2023-03-23T02:01:58;7.53;;;4.13;;
70303;SDS011;57712;48.752;11.348;2023-03-23T02:04:27;6.95;;;3.58;;
70303;SDS011;57712;48.752;11.348;2023-03-23T02:06:56;7.25;;;3.35;;
70303;SDS011;57712;48.752;11.348;2023-03-23T02:09:24;7.97;;;4.40;;
70303;SDS011;57712;48.752;11.348;2023-03-23T02:11:51;9.07;;;3.70;;
70303;SDS011;57712;48.752;11.348;2023-03-23T02:14:20;7.38;;;3.42;;
70303;SDS011;57712;48.752;11.348;2023-03-23T02:16:52;6.07;;;3.38;;
70303;SDS011;57712;48.752;11.348;2023-03-23T02:19:47;6.95;;;3.03;;
70303;SDS011;57712;48.752;11.348;2023-03-23T02:25:17;6.88;;;3.28;;
70303;SDS011;57712;48.752;11.348;2023-03-23T02:27:55;6.75;;;3.03;;
70303;SDS011;57712;48.752;11.348;2023-03-23T02:33:35;6.53;;;2.88;;
70303;SDS011;57712;48.752;11.348;2023-03-23T02:38:45;8.25;;;3.70;;
70303;SDS011;57712;48.752;11.348;2023-03-23T02:41:22;8.48;;;3.70;;
70303;SDS011;57712;48.752;11.348;2023-03-23T02:43:54;7.18;;;3.17;;
70303;SDS011;57712;48.752;11.348;2023-03-23T02:46:23;6.88;;;3.30;;
70303;SDS011;57712;48.752;11.348;2023-03-23T02:48:51;7.37;;;3.30;;
70303;SDS011;57712;48.752;11.348;2023-03-23T02:51:22;6.60;;;3.60;;
70303;SDS011;57712;48.752;11.348;2023-03-23T02:53:51;9.23;;;4.18;;
70303;SDS011;57712;48.752;11.348;2023-03-23T02:56:22;7.57;;;3.75;;
70303;SDS011;57712;48.752;11.348;2023-03-23T02:58:51;8.48;;;4.07;;
70303;SDS011;57712;48.752;11.348;2023-03-23T03:04:06;6.53;;;3.03;;
70303;SDS011;57712;48.752;11.348;2023-03-23T03:07:02;7.35;;;3.60;;
70303;SDS011;57712;48.752;11.348;2023-03-23T03:10:04;6.95;;;3.42;;
70303;SDS011;57712;48.752;11.348;2023-03-23T03:18:34;8.77;;;3.67;;
70303;SDS011;57712;48.752;11.348;2023-03-23T03:21:09;6.70;;;3.75;;
70303;SDS011;57712;48.752;11.348;2023-03-23T03:23:39;9.13;;;3.88;;
70303;SDS011;57712;48.752;11.348;2023-03-23T03:26:09;7.88;;;3.70;;
70303;SDS011;57712;48.752;11.348;2023-03-23T03:28:39;7.37;;;3.80;;
70303;SDS011;57712;48.752;11.348;2023-03-23T03:31:07;7.90;;;3.90;;
70303;SDS011;57712;48.752;11.348;2023-03-23T03:33:35;6.30;;;3.50;;
70303;SDS011;57712;48.752;11.348;2023-03-23T03:36:04;7.82;;;3.80;;
70303;SDS011;57712;48.752;11.348;2023-03-23T03:38:42;7.90;;;4.55;;
70303;SDS011;57712;48.752;11.348;2023-03-23T03:41:09;8.27;;;3.93;;
70303;SDS011;57712;48.752;11.348;2023-03-23T03:43:36;7.00;;;4.05;;
70303;SDS011;57712;48.752;11.348;2023-03-23T03:46:03;8.93;;;4.25;;
70303;SDS011;57712;48.752;11.348;2023-03-23T03:48:30;8.98;;;4.47;;
70303;SDS011;57712;48.752;11.348;2023-03-23T03:50:57;8.55;;;4.57;;
70303;SDS011;57712;48.752;11.348;2023-03-23T03:53:27;7.67;;;4.20;;
70303;SDS011;57712;48.752;11.348;2023-03-23T03:55:54;7.53;;;4.25;;
70303;SDS011;57712;48.752;11.348;2023-03-23T03:58:26;9.05;;;4.63;;
70303;SDS011;57712;48.752;11.348;2023-03-23T04:00:58;7.68;;;3.80;;
70303;SDS011;57712;48.752;11.348;2023-03-23T04:03:26;7.32;;;3.75;;
70303;SDS011;57712;48.752;11.348;2023-03-23T04:05:54;7.20;;;4.20;;
70303;SDS011;57712;48.752;11.348;2023-03-23T04:08:24;8.40;;;3.47;;
70303;SDS011;57712;48.752;11.348;2023-03-23T04:10:50;8.85;;;3.72;;
70303;SDS011;57712;48.752;11.348;2023-03-23T04:13:17;7.75;;;4.03;;
70303;SDS011;57712;48.752;11.348;2023-03-23T04:15:45;7.50;;;3.83;;
70303;SDS011;57712;48.752;11.348;2023-03-23T04:18:33;6.83;;;3.60;;
70303;SDS011;57712;48.752;11.348;2023-03-23T04:21:01;7.05;;;4.07;;
70303;SDS011;57712;48.752;11.348;2023-03-23T04:23:30;7.75;;;4.03;;
70303;SDS011;57712;48.752;11.348;2023-03-23T04:26:03;7.22;;;4.10;;
70303;SDS011;57712;48.752;11.348;2023-03-23T04:28:30;6.82;;;4.20;;
70303;SDS011;57712;48.752;11.348;2023-03-23T04:31:00;6.93;;;3.77;;
70303;SDS011;57712;48.752;11.348;2023-03-23T04:33:31;8.82;;;3.90;;
70303;SDS011;57712;48.752;11.348;2023-03-23T04:36:18;7.28;;;3.97;;
70303;SDS011;57712;48.752;11.348;2023-03-23T04:38:46;9.43;;;4.00;;
70303;SDS011;57712;48.752;11.348;2023-03-23T04:41:13;8.30;;;3.88;;
70303;SDS011;57712;48.752;11.348;2023-03-23T04:43:39;14.03;;;3.97;;
70303;SDS011;57712;48.752;11.348;2023-03-23T04:46:08;8.40;;;4.10;;
70303;SDS011;57712;48.752;11.348;2023-03-23T04:48:36;7.80;;;4.07;;
70303;SDS011;57712;48.752;11.348;2023-03-23T04:51:05;8.05;;;3.88;;
70303;SDS011;57712;48.752;11.348;2023-03-23T04:53:32;7.93;;;4.25;;
70303;SDS011;57712;48.752;11.348;2023-03-23T04:56:00;7.03;;;4.23;;
70303;SDS011;57712;48.752;11.348;2023-03-23T04:58:29;10.45;;;5.07;;
70303;SDS011;57712;48.752;11.348;2023-03-23T05:01:00;10.05;;;4.65;;
70303;SDS011;57712;48.752;11.348;2023-03-23T05:03:34;8.20;;;4.05;;
70303;SDS011;57712;48.752;11.348;2023-03-23T05:06:01;8.18;;;4.20;;
70303;SDS011;57712;48.752;11.348;2023-03-23T05:08:30;7.40;;;4.00;;
70303;SDS011;57712;48.752;11.348;2023-03-23T05:10:59;7.78;;;3.75;;
70303;SDS011;57712;48.752;11.348;2023-03-23T05:13:27;8.70;;;3.85;;
70303;SDS011;57712;48.752;11.348;2023-03-23T05:15:56;7.40;;;4.00;;
70303;SDS011;57712;48.752;11.348;2023-03-23T05:18:23;7.72;;;3.80;;
70303;SDS011;57712;48.752;11.348;2023-03-23T05:20:49;8.27;;;3.80;;
70303;SDS011;57712;48.752;11.348;2023-03-23T05:23:19;8.00;;;3.67;;
70303;SDS011;57712;48.752;11.348;2023-03-23T05:25:54;9.55;;;4.38;;
70303;SDS011;57712;48.752;11.348;2023-03-23T05:28:21;7.65;;;4.18;;
70303;SDS011;57712;48.752;11.348;2023-03-23T05:30:48;8.00;;;4.28;;
70303;SDS011;57712;48.752;11.348;2023-03-23T05:33:15;8.63;;;4.30;;
70303;SDS011;57712;48.752;11.348;2023-03-23T05:35:42;8.25;;;4.20;;
70303;SDS011;57712;48.752;11.348;2023-03-23T05:38:09;8.38;;;4.32;;
70303;SDS011;57712;48.752;11.348;2023-03-23T05:40:36;10.20;;;5.00;;
70303;SDS011;57712;48.752;11.348;2023-03-23T05:43:03;10.00;;;5.15;;
70303;SDS011;57712;48.752;11.348;2023-03-23T05:45:30;9.33;;;5.90;;
70303;SDS011;57712;48.752;11.348;2023-03-23T05:47:57;10.73;;;5.32;;
70303;SDS011;57712;48.752;11.348;2023-03-23T05:50:23;10.75;;;6.05;;
70303;SDS011;57712;48.752;11.348;2023-03-23T05:52:50;13.57;;;6.53;;
70303;SDS011;57712;48.752;11.348;2023-03-23T05:55:17;12.27;;;6.25;;
70303;SDS011;57712;48.752;11.348;2023-03-23T05:57:44;10.90;;;5.53;;
70303;SDS011;57712;48.752;11.348;2023-03-23T06:00:11;10.35;;;6.00;;
70303;SDS011;57712;48.752;11.348;2023-03-23T06:02:46;11.70;;;6.72;;
70303;SDS011;57712;48.752;11.348;2023-03-23T06:05:14;12.25;;;6.20;;
70303;SDS011;57712;48.752;11.348;2023-03-23T06:07:42;10.45;;;6.07;;
70303;SDS011;57712;48.752;11.348;2023-03-23T06:10:09;9.67;;;5.27;;
70303;SDS011;57712;48.752;11.348;2023-03-23T06:12:37;12.23;;;6.07;;
70303;SDS011;57712;48.752;11.348;2023-03-23T06:15:06;9.70;;;5.65;;
70303;SDS011;57712;48.752;11.348;2023-03-23T06:17:34;10.98;;;5.65;;
70303;SDS011;57712;48.752;11.348;2023-03-23T06:20:03;12.55;;;5.57;;
70303;SDS011;57712;48.752;11.348;2023-03-23T06:22:36;11.00;;;5.40;;
70303;SDS011;57712;48.752;11.348;2023-03-23T06:25:04;12.18;;;5.90;;
70303;SDS011;57712;48.752;11.348;2023-03-23T06:27:35;14.00;;;6.43;;
70303;SDS011;57712;48.752;11.348;2023-03-23T06:30:02;11.73;;;5.97;;
70303;SDS011;57712;48.752;11.348;2023-03-23T06:32:30;13.15;;;6.60;;
70303;SDS011;57712;48.752;11.348;2023-03-23T06:34:58;18.23;;;9.07;;
70303;SDS011;57712;48.752;11.348;2023-03-23T06:37:25;16.60;;;9.75;;
70303;SDS011;57712;48.752;11.348;2023-03-23T06:39:52;17.67;;;10.38;;
70303;SDS011;57712;48.752;11.348;2023-03-23T06:42:19;16.77;;;8.95;;
70303;SDS011;57712;48.752;11.348;2023-03-23T06:44:45;14.93;;;7.75;;
70303;SDS011;57712;48.752;11.348;2023-03-23T06:47:12;14.37;;;7.10;;
70303;SDS011;57712;48.752;11.348;2023-03-23T06:49:39;14.55;;;8.20;;
70303;SDS011;57712;48.752;11.348;2023-03-23T06:52:06;12.13;;;7.55;;
70303;SDS011;57712;48.752;11.348;2023-03-23T06:54:32;12.45;;;7.40;;
70303;SDS011;57712;48.752;11.348;2023-03-23T06:56:59;13.90;;;8.05;;
70303;SDS011;57712;48.752;11.348;2023-03-23T06:59:26;17.03;;;7.00;;
70303;SDS011;57712;48.752;11.348;2023-03-23T07:01:53;15.40;;;7.45;;
70303;SDS011;57712;48.752;11.348;2023-03-23T07:04:19;15.07;;;8.00;;
70303;SDS011;57712;48.752;11.348;2023-03-23T07:06:46;13.55;;;7.18;;
70303;SDS011;57712;48.752;11.348;2023-03-23T07:09:13;12.35;;;7.28;;
70303;SDS011;57712;48.752;11.348;2023-03-23T07:11:40;14.13;;;7.63;;
70303;SDS011;57712;48.752;11.348;2023-03-23T07:14:07;13.30;;;7.53;;
70303;SDS011;57712;48.752;11.348;2023-03-23T07:16:34;12.85;;;7.70;;
70303;SDS011;57712;48.752;11.348;2023-03-23T07:19:01;14.65;;;7.90;;
70303;SDS011;57712;48.752;11.348;2023-03-23T07:21:27;13.02;;;8.27;;
70303;SDS011;57712;48.752;11.348;2023-03-23T07:23:54;13.00;;;8.07;;
70303;SDS011;57712;48.752;11.348;2023-03-23T07:26:21;13.82;;;7.88;;
70303;SDS011;57712;48.752;11.348;2023-03-23T07:28:49;12.68;;;7.35;;
70303;SDS011;57712;48.752;11.348;2023-03-23T07:31:16;13.00;;;7.35;;
70303;SDS011;57712;48.752;11.348;2023-03-23T07:33:42;14.63;;;7.70;;
70303;SDS011;57712;48.752;11.348;2023-03-23T07:36:10;13.03;;;7.20;;
70303;SDS011;57712;48.752;11.348;2023-03-23T07:38:36;13.02;;;7.15;;
70303;SDS011;57712;48.752;11.348;2023-03-23T07:41:03;12.73;;;7.85;;
70303;SDS011;57712;48.752;11.348;2023-03-23T07:43:31;11.68;;;7.15;;
70303;SDS011;57712;48.752;11.348;2023-03-23T07:45:58;12.00;;;6.97;;
70303;SDS011;57712;48.752;11.348;2023-03-23T07:48:25;11.90;;;7.03;;
70303;SDS011;57712;48.752;11.348;2023-03-23T07:50:51;12.32;;;5.20;;
70303;SDS011;57712;48.752;11.348;2023-03-23T07:53:18;9.05;;;5.38;;
70303;SDS011;57712;48.752;11.348;2023-03-23T07:55:45;9.88;;;5.57;;
70303;SDS011;57712;48.752;11.348;2023-03-23T07:58:11;10.57;;;5.70;;
70303;SDS011;57712;48.752;11.348;2023-03-23T08:00:43;8.73;;;4.47;;
70303;SDS011;57712;48.752;11.348;2023-03-23T08:03:10;8.77;;;4.07;;
70303;SDS011;57712;48.752;11.348;2023-03-23T08:05:37;8.80;;;5.10;;
70303;SDS011;57712;48.752;11.348;2023-03-23T08:08:03;7.35;;;4.03;;
70303;SDS011;57712;48.752;11.348;2023-03-23T08:10:31;9.05;;;3.88;;
70303;SDS011;57712;48.752;11.348;2023-03-23T08:12:58;7.73;;;3.60;;
70303;SDS011;57712;48.752;11.348;2023-03-23T08:15:26;6.97;;;4.28;;
70303;SDS011;57712;48.752;11.348;2023-03-23T08:17:53;7.40;;;3.75;;
70303;SDS011;57712;48.752;11.348;2023-03-23T08:20:20;7.13;;;3.60;;
70303;SDS011;57712;48.752;11.348;2023-03-23T08:22:52;7.10;;;3.55;;
70303;SDS011;57712;48.752;11.348;2023-03-23T08:25:21;6.73;;;3.60;;
70303;SDS011;57712;48.752;11.348;2023-03-23T08:27:49;8.90;;;3.97;;
70303;SDS011;57712;48.752;11.348;2023-03-23T08:30:17;8.48;;;4.10;;
70303;SDS011;57712;48.752;11.348;2023-03-23T08:32:52;8.05;;;3.50;;
70303;SDS011;57712;48.752;11.348;2023-03-23T08:35:19;7.70;;;3.60;;
70303;SDS011;57712;48.752;11.348;2023-03-23T08:37:46;7.33;;;3.70;;
70303;SDS011;57712;48.752;11.348;2023-03-23T08:40:18;8.20;;;3.50;;
70303;SDS011;57712;48.752;11.348;2023-03-23T08:42:46;7.50;;;3.63;;
70303;SDS011;57712;48.752;11.348;2023-03-23T08:45:24;7.97;;;3.90;;
70303;SDS011;57712;48.752;11.348;2023-03-23T08:47:52;8.75;;;3.53;;
70303;SDS011;57712;48.752;11.348;2023-03-23T08:50:23;6.83;;;3.67;;
70303;SDS011;57712;48.752;11.348;2023-03-23T08:52:51;6.88;;;3.35;;
70303;SDS011;57712;48.752;11.348;2023-03-23T08:55:19;6.35;;;2.88;;
70303;SDS011;57712;48.752;11.348;2023-03-23T08:57:47;7.10;;;3.55;;
70303;SDS011;57712;48.752;11.348;2023-03-23T09:00:16;10.13;;;3.65;;
70303;SDS011;57712;48.752;11.348;2023-03-23T09:02:46;6.40;;;3.03;;
70303;SDS011;57712;48.752;11.348;2023-03-23T09:05:15;5.53;;;3.03;;
70303;SDS011;57712;48.752;11.348;2023-03-23T09:07:44;6.57;;;3.22;;
70303;SDS011;57712;48.752;11.348;2023-03-23T09:10:13;6.50;;;3.15;;
70303;SDS011;57712;48.752;11.348;2023-03-23T09:12:41;6.18;;;3.13;;
70303;SDS011;57712;48.752;11.348;2023-03-23T09:15:10;5.97;;;2.87;;
70303;SDS011;57712;48.752;11.348;2023-03-23T09:17:43;6.30;;;2.60;;
70303;SDS011;57712;48.752;11.348;2023-03-23T09:20:12;6.10;;;2.53;;
70303;SDS011;57712;48.752;11.348;2023-03-23T09:22:41;6.72;;;2.88;;
70303;SDS011;57712;48.752;11.348;2023-03-23T09:25:11;5.60;;;2.75;;
70303;SDS011;57712;48.752;11.348;2023-03-23T09:27:41;5.90;;;2.47;;
70303;SDS011;57712;48.752;11.348;2023-03-23T09:30:11;6.55;;;2.40;;
70303;SDS011;57712;48.752;11.348;2023-03-23T09:32:40;5.25;;;2.33;;
70303;SDS011;57712;48.752;11.348;2023-03-23T09:35:10;5.13;;;2.30;;
70303;SDS011;57712;48.752;11.348;2023-03-23T09:37:39;5.60;;;2.28;;
70303;SDS011;57712;48.752;11.348;2023-03-23T09:40:09;6.00;;;2.60;;
70303;SDS011;57712;48.752;11.348;2023-03-23T09:45:41;7.20;;;2.70;;
70303;SDS011;57712;48.752;11.348;2023-03-23T09:50:42;5.88;;;2.72;;
70303;SDS011;57712;48.752;11.348;2023-03-23T09:53:16;7.33;;;2.10;;
70303;SDS011;57712;48.752;11.348;2023-03-23T09:55:47;5.97;;;2.55;;
70303;SDS011;57712;48.752;11.348;2023-03-23T10:03:40;6.53;;;3.05;;
70303;SDS011;57712;48.752;11.348;2023-03-23T10:06:13;6.43;;;2.57;;
70303;SDS011;57712;48.752;11.348;2023-03-23T10:08:51;5.45;;;2.72;;
70303;SDS011;57712;48.752;11.348;2023-03-23T10:11:44;6.72;;;2.63;;
70303;SDS011;57712;48.752;11.348;2023-03-23T10:17:15;5.63;;;3.17;;
70303;SDS011;57712;48.752;11.348;2023-03-23T10:22:29;6.25;;;2.72;;
70303;SDS011;57712;48.752;11.348;2023-03-23T10:27:45;5.10;;;2.55;;
70303;SDS011;57712;48.752;11.348;2023-03-23T10:30:52;6.13;;;2.40;;
70303;SDS011;57712;48.752;11.348;2023-03-23T10:33:29;6.73;;;2.90;;
70303;SDS011;57712;48.752;11.348;2023-03-23T10:36:01;6.70;;;2.78;;
70303;SDS011;57712;48.752;11.348;2023-03-23T10:38:37;5.93;;;2.53;;
70303;SDS011;57712;48.752;11.348;2023-03-23T10:41:10;5.80;;;2.47;;
70303;SDS011;57712;48.752;11.348;2023-03-23T10:43:38;6.53;;;2.20;;
70303;SDS011;57712;48.752;11.348;2023-03-23T10:49:22;5.32;;;1.83;;
70303;SDS011;57712;48.752;11.348;2023-03-23T10:55:04;4.72;;;1.70;;
70303;SDS011;57712;48.752;11.348;2023-03-23T10:57:36;5.13;;;2.17;;
70303;SDS011;57712;48.752;11.348;2023-03-23T11:00:07;5.10;;;2.17;;
70303;SDS011;57712;48.752;11.348;2023-03-23T11:03:05;5.25;;;1.73;;
70303;SDS011;57712;48.752;11.348;2023-03-23T11:05:36;5.53;;;1.77;;
70303;SDS011;57712;48.752;11.348;2023-03-23T11:08:18;4.35;;;1.70;;
70303;SDS011;57712;48.752;11.348;2023-03-23T11:13:27;5.17;;;2.10;;
70303;SDS011;57712;48.752;11.348;2023-03-23T11:15:56;5.45;;;1.73;;
70303;SDS011;57712;48.752;11.348;2023-03-23T11:18:25;6.43;;;1.92;;
70303;SDS011;57712;48.752;11.348;2023-03-23T11:20:55;4.85;;;1.67;;
70303;SDS011;57712;48.752;11.348;2023-03-23T11:23:24;4.88;;;2.03;;
70303;SDS011;57712;48.752;11.348;2023-03-23T11:26:20;4.70;;;1.70;;
70303;SDS011;57712;48.752;11.348;2023-03-23T11:28:56;4.95;;;1.80;;
70303;SDS011;57712;48.752;11.348;2023-03-23T11:31:29;4.78;;;1.70;;
70303;SDS011;57712;48.752;11.348;2023-03-23T11:34:03;6.63;;;2.33;;
70303;SDS011;57712;48.752;11.348;2023-03-23T11:36:33;4.72;;;1.98;;
70303;SDS011;57712;48.752;11.348;2023-03-23T11:39:03;4.63;;;2.00;;
70303;SDS011;57712;48.752;11.348;2023-03-23T11:41:45;5.63;;;1.85;;
70303;SDS011;57712;48.752;11.348;2023-03-23T11:44:16;6.28;;;1.65;;
70303;SDS011;57712;48.752;11.348;2023-03-23T11:46:59;4.85;;;2.10;;
70303;SDS011;57712;48.752;11.348;2023-03-23T11:54:56;4.20;;;1.70;;
70303;SDS011;57712;48.752;11.348;2023-03-23T11:57:35;4.38;;;1.85;;
70303;SDS011;57712;48.752;11.348;2023-03-23T12:00:10;6.55;;;2.15;;
70303;SDS011;57712;48.752;11.348;2023-03-23T12:05:38;5.00;;;1.80;;
70303;SDS011;57712;48.752;11.348;2023-03-23T12:11:07;5.13;;;1.70;;
70303;SDS011;57712;48.752;11.348;2023-03-23T12:13:53;5.35;;;2.00;;
70303;SDS011;57712;48.752;11.348;2023-03-23T12:16:49;5.10;;;2.03;;
70303;SDS011;57712;48.752;11.348;2023-03-23T12:28:00;5.53;;;1.60;;
70303;SDS011;57712;48.752;11.348;2023-03-23T12:33:43;5.57;;;2.00;;
70303;SDS011;57712;48.752;11.348;2023-03-23T12:39:30;4.75;;;1.73;;
70303;SDS011;57712;48.752;11.348;2023-03-23T12:42:21;6.18;;;2.10;;
70303;SDS011;57712;48.752;11.348;2023-03-23T12:45:02;5.45;;;2.38;;
70303;SDS011;57712;48.752;11.348;2023-03-23T12:47:46;4.93;;;1.93;;
70303;SDS011;57712;48.752;11.348;2023-03-23T12:53:19;4.63;;;1.75;;
70303;SDS011;57712;48.752;11.348;2023-03-23T12:59:17;5.93;;;2.22;;
70303;SDS011;57712;48.752;11.348;2023-03-23T13:01:50;4.97;;;2.03;;
70303;SDS011;57712;48.752;11.348;2023-03-23T13:04:25;4.93;;;2.42;;
70303;SDS011;57712;48.752;11.348;2023-03-23T13:07:05;4.75;;;2.00;;
70303;SDS011;57712;48.752;11.348;2023-03-23T13:09:47;8.27;;;1.98;;
70303;SDS011;57712;48.752;11.348;2023-03-23T13:12:18;5.50;;;2.22;;
70303;SDS011;57712;48.752;11.348;2023-03-23T13:14:53;4.60;;;1.77;;
70303;SDS011;57712;48.752;11.348;2023-03-23T13:23:10;4.65;;;1.58;;
70303;SDS011;57712;48.752;11.348;2023-03-23T13:28:25;5.47;;;2.07;;
70303;SDS011;57712;48.752;11.348;2023-03-23T13:30:59;5.75;;;1.90;;
70303;SDS011;57712;48.752;11.348;2023-03-23T13:33:32;5.75;;;2.47;;
70303;SDS011;57712;48.752;11.348;2023-03-23T13:36:11;4.82;;;2.30;;
70303;SDS011;57712;48.752;11.348;2023-03-23T13:38:47;5.35;;;2.03;;
70303;SDS011;57712;48.752;11.348;2023-03-23T13:41:17;6.77;;;2.40;;
70303;SDS011;57712;48.752;11.348;2023-03-23T13:43:46;5.07;;;2.00;;
70303;SDS011;57712;48.752;11.348;2023-03-23T13:48:45;5.03;;;2.50;;
70303;SDS011;57712;48.752;11.348;2023-03-23T13:51:25;6.68;;;2.30;;
70303;SDS011;57712;48.752;11.348;2023-03-23T13:56:40;3.90;;;1.30;;
70303;SDS011;57712;48.752;11.348;2023-03-23T13:59:12;4.35;;;1.40;;
70303;SDS011;57712;48.752;11.348;2023-03-23T14:01:41;4.88;;;1.42;;
70303;SDS011;57712;48.752;11.348;2023-03-23T14:04:15;4.57;;;1.50;;
70303;SDS011;57712;48.752;11.348;2023-03-23T14:06:44;4.83;;;1.80;;
70303;SDS011;57712;48.752;11.348;2023-03-23T14:09:36;5.70;;;1.65;;
70303;SDS011;57712;48.752;11.348;2023-03-23T14:12:06;3.90;;;1.60;;
70303;SDS011;57712;48.752;11.348;2023-03-23T14:14:44;4.40;;;1.50;;
70303;SDS011;57712;48.752;11.348;2023-03-23T14:17:23;4.97;;;1.50;;
70303;SDS011;57712;48.752;11.348;2023-03-23T14:19:54;4.63;;;1.37;;
70303;SDS011;57712;48.752;11.348;2023-03-23T14:22:23;5.70;;;2.17;;
70303;SDS011;57712;48.752;11.348;2023-03-23T14:24:50;7.03;;;1.80;;
70303;SDS011;57712;48.752;11.348;2023-03-23T14:27:22;3.97;;;1.65;;
70303;SDS011;57712;48.752;11.348;2023-03-23T14:29:59;4.20;;;1.45;;
70303;SDS011;57712;48.752;11.348;2023-03-23T14:32:27;5.43;;;1.53;;
70303;SDS011;57712;48.752;11.348;2023-03-23T14:34:57;5.13;;;1.95;;
70303;SDS011;57712;48.752;11.348;2023-03-23T14:37:25;5.53;;;2.33;;
70303;SDS011;57712;48.752;11.348;2023-03-23T14:39:53;7.53;;;2.70;;
70303;SDS011;57712;48.752;11.348;2023-03-23T14:42:23;5.18;;;2.35;;
70303;SDS011;57712;48.752;11.348;2023-03-23T14:45:00;4.80;;;2.03;;
70303;SDS011;57712;48.752;11.348;2023-03-23T14:47:29;5.38;;;2.20;;
70303;SDS011;57712;48.752;11.348;2023-03-23T14:50:00;10.85;;;4.50;;
70303;SDS011;57712;48.752;11.348;2023-03-23T14:52:29;8.75;;;3.55;;
70303;SDS011;57712;48.752;11.348;2023-03-23T14:55:14;6.60;;;2.28;;
70303;SDS011;57712;48.752;11.348;2023-03-23T14:57:45;5.43;;;2.77;;
70303;SDS011;57712;48.752;11.348;2023-03-23T15:00:33;5.28;;;2.58;;
70303;SDS011;57712;48.752;11.348;2023-03-23T15:03:10;5.40;;;2.10;;
70303;SDS011;57712;48.752;11.348;2023-03-23T15:05:41;5.82;;;2.38;;
70303;SDS011;57712;48.752;11.348;2023-03-23T15:08:17;5.63;;;2.45;;
70303;SDS011;57712;48.752;11.348;2023-03-23T15:10:52;6.83;;;3.00;;
70303;SDS011;57712;48.752;11.348;2023-03-23T15:13:21;6.80;;;2.50;;
70303;SDS011;57712;48.752;11.348;2023-03-23T15:15:48;5.65;;;2.25;;
70303;SDS011;57712;48.752;11.348;2023-03-23T15:18:32;4.80;;;2.20;;
70303;SDS011;57712;48.752;11.348;2023-03-23T15:21:12;5.20;;;2.15;;
70303;SDS011;57712;48.752;11.348;2023-03-23T15:23:55;5.67;;;2.00;;
70303;SDS011;57712;48.752;11.348;2023-03-23T15:26:25;5.22;;;2.05;;
70303;SDS011;57712;48.752;11.348;2023-03-23T15:29:00;5.50;;;2.33;;
70303;SDS011;57712;48.752;11.348;2023-03-23T15:31:41;5.32;;;2.10;;
70303;SDS011;57712;48.752;11.348;2023-03-23T15:34:11;4.85;;;2.20;;
70303;SDS011;57712;48.752;11.348;2023-03-23T15:36:41;6.23;;;2.10;;
70303;SDS011;57712;48.752;11.348;2023-03-23T15:39:11;7.78;;;2.45;;
70303;SDS011;57712;48.752;11.348;2023-03-23T15:41:46;5.30;;;1.92;;
70303;SDS011;57712;48.752;11.348;2023-03-23T15:44:24;5.30;;;1.88;;
70303;SDS011;57712;48.752;11.348;2023-03-23T15:47:10;5.10;;;2.33;;
70303;SDS011;57712;48.752;11.348;2023-03-23T15:49:41;5.20;;;2.63;;
70303;SDS011;57712;48.752;11.348;2023-03-23T15:52:09;4.80;;;1.58;;
70303;SDS011;57712;48.752;11.348;2023-03-23T15:54:38;6.13;;;2.22;;
70303;SDS011;57712;48.752;11.348;2023-03-23T15:57:05;5.95;;;1.90;;
70303;SDS011;57712;48.752;11.348;2023-03-23T15:59:31;5.05;;;2.28;;
70303;SDS011;57712;48.752;11.348;2023-03-23T16:01:58;5.70;;;1.80;;
70303;SDS011;57712;48.752;11.348;2023-03-23T16:04:25;7.20;;;2.30;;
70303;SDS011;57712;48.752;11.348;2023-03-23T16:06:54;7.18;;;2.80;;
70303;SDS011;57712;48.752;11.348;2023-03-23T16:09:22;7.03;;;2.25;;
70303;SDS011;57712;48.752;11.348;2023-03-23T16:11:48;4.38;;;2.03;;
70303;SDS011;57712;48.752;11.348;2023-03-23T16:14:15;5.17;;;1.67;;
70303;SDS011;57712;48.752;11.348;2023-03-23T16:16:43;4.60;;;1.95;;
70303;SDS011;57712;48.752;11.348;2023-03-23T16:19:15;7.05;;;2.03;;
70303;SDS011;57712;48.752;11.348;2023-03-23T16:21:43;5.45;;;2.05;;
70303;SDS011;57712;48.752;11.348;2023-03-23T16:24:10;4.55;;;2.15;;
70303;SDS011;57712;48.752;11.348;2023-03-23T16:26:36;6.10;;;2.23;;
70303;SDS011;57712;48.752;11.348;2023-03-23T16:29:10;6.93;;;2.20;;
70303;SDS011;57712;48.752;11.348;2023-03-23T16:31:58;7.50;;;3.42;;